Time;durP1;ratioP1;P1;durP2;ratioP2;P2;SDS_P1;SDS_P2;PMS_P1;PMS_P2;Temp;Humidity;BMP_temperature;BMP_pressure;BME280_temperature;BME280_humidity;BME280_pressure;Samples;Min_cycle;Max_cycle;Signal;HPM_P1;HPM_P2
2021/11/18 00:00:20;;;;;;;21.73;15.00;;;;;;;3.24;100.00;97243.78;5042376;28;20021;-72
2021/11/18 00:02:48;;;;;;;21.97;15.60;;;;;;;3.24;100.00;97242.00;5013440;28;20545;-72
2021/11/18 00:05:18;;;;;;;22.93;15.67;;;;;;;3.26;100.00;97244.53;5021652;28;20029;-72
2021/11/18 00:07:47;;;;;;;22.27;16.43;;;;;;;3.22;100.00;97246.47;5015916;28;20056;-72
2021/11/18 00:10:20;;;;;;;24.30;15.90;;;;;;;3.19;100.00;97251.03;5036950;28;20025;-73
2021/11/18 00:12:46;;;;;;;26.17;17.85;;;;;;;3.20;100.00;97240.53;5018627;28;20029;-72
2021/11/18 00:15:14;;;;;;;24.50;17.67;;;;;;;3.18;100.00;97247.56;5034766;28;20036;-72
2021/11/18 00:17:40;;;;;;;24.57;17.13;;;;;;;3.20;100.00;97257.88;5028794;28;20086;-72
2021/11/18 00:20:13;;;;;;;24.50;16.13;;;;;;;3.24;100.00;97251.56;5029487;28;20041;-72
2021/11/18 00:22:41;;;;;;;23.07;16.93;;;;;;;3.24;100.00;97255.00;5026590;28;20030;-72
2021/11/18 00:25:08;;;;;;;23.00;15.60;;;;;;;3.25;100.00;97255.84;5040255;28;20040;-73
2021/11/18 00:27:33;;;;;;;24.17;16.97;;;;;;;3.25;100.00;97253.25;5026815;28;20032;-72
2021/11/18 00:29:59;;;;;;;28.00;17.30;;;;;;;3.25;100.00;97250.63;5027708;28;20409;-72
2021/11/18 00:32:25;;;;;;;23.20;15.47;;;;;;;3.31;100.00;97252.88;5038111;28;20035;-72
2021/11/18 00:34:50;;;;;;;24.10;15.57;;;;;;;3.25;100.00;97248.91;5022286;28;20113;-71
2021/11/18 00:37:16;;;;;;;23.17;16.10;;;;;;;3.23;100.00;97252.50;5017971;28;20489;-71
2021/11/18 00:39:43;;;;;;;23.90;14.80;;;;;;;3.28;100.00;97247.88;5017132;28;20464;-72
2021/11/18 00:42:09;;;;;;;24.50;16.53;;;;;;;3.28;100.00;97259.09;5013185;28;20064;-71
2021/11/18 00:44:35;;;;;;;25.37;16.17;;;;;;;3.28;100.00;97260.88;5029119;28;20474;-71
2021/11/18 00:47:00;;;;;;;22.13;15.73;;;;;;;3.25;100.00;97258.44;5025082;28;20052;-71
2021/11/18 00:49:26;;;;;;;23.27;16.03;;;;;;;3.26;100.00;97254.94;4999072;28;20072;-71
2021/11/18 00:51:54;;;;;;;26.20;15.67;;;;;;;3.23;100.00;97248.16;5015147;28;20386;-71
2021/11/18 00:54:21;;;;;;;23.70;15.63;;;;;;;3.27;100.00;97246.19;5039860;28;20029;-71
2021/11/18 00:56:47;;;;;;;24.27;17.70;;;;;;;3.30;100.00;97243.41;5035243;28;20029;-72
2021/11/18 00:59:12;;;;;;;23.33;16.03;;;;;;;3.29;100.00;97245.19;5019550;28;20082;-72
2021/11/18 01:01:43;;;;;;;25.90;16.43;;;;;;;3.24;100.00;97247.22;5031177;28;20025;-71
2021/11/18 01:04:16;;;;;;;23.63;15.33;;;;;;;3.24;100.00;97246.38;5023355;28;20037;-72
2021/11/18 01:06:42;;;;;;;27.27;17.03;;;;;;;3.25;100.00;97250.63;5044640;28;20067;-72
2021/11/18 01:09:10;;;;;;;28.77;16.57;;;;;;;3.25;100.00;97251.50;5016158;28;20048;-72
2021/11/18 01:11:36;;;;;;;25.07;17.30;;;;;;;3.26;100.00;97260.97;5038306;28;20033;-73
2021/11/18 01:14:05;;;;;;;27.20;17.77;;;;;;;3.23;100.00;97255.94;5025200;28;20540;-72
2021/11/18 01:16:34;;;;;;;30.00;17.50;;;;;;;3.29;100.00;97257.34;5017911;28;20432;-72
2021/11/18 01:19:00;;;;;;;25.30;17.50;;;;;;;3.32;100.00;97264.97;5022140;28;20045;-72
2021/11/18 01:21:29;;;;;;;28.23;17.80;;;;;;;3.27;100.00;97273.03;5018886;28;20076;-72
2021/11/18 01:23:55;;;;;;;26.33;18.67;;;;;;;3.28;100.00;97264.28;5022338;28;20048;-72
2021/11/18 01:26:30;;;;;;;29.57;19.90;;;;;;;3.30;100.00;97272.84;5003404;28;20629;-72
2021/11/18 01:28:59;;;;;;;27.63;17.87;;;;;;;3.28;100.00;97258.25;5044272;28;20115;-72
2021/11/18 01:31:26;;;;;;;26.33;18.63;;;;;;;3.29;100.00;97263.38;5017895;28;20043;-72
2021/11/18 01:33:57;;;;;;;29.23;17.87;;;;;;;3.28;100.00;97263.47;5011166;28;20059;-72
2021/11/18 01:36:24;;;;;;;35.60;20.47;;;;;;;3.31;100.00;97268.50;5029470;28;20032;-72
2021/11/18 01:38:59;;;;;;;28.27;18.33;;;;;;;3.29;100.00;97266.00;5016423;28;20029;-72
2021/11/18 01:41:29;;;;;;;28.67;17.97;;;;;;;3.26;100.00;97260.13;5041806;28;20033;-71
2021/11/18 01:43:59;;;;;;;34.43;20.03;;;;;;;3.28;100.00;97263.47;5016968;28;20140;-72
2021/11/18 01:46:36;;;;;;;27.27;20.53;;;;;;;3.28;100.00;97260.88;5001704;28;20094;-72
2021/11/18 01:49:12;;;;;;;27.00;19.57;;;;;;;3.31;100.00;97260.69;5007904;28;20052;-72
2021/11/18 01:51:44;;;;;;;29.77;19.07;;;;;;;3.30;100.00;97254.66;5030751;28;20048;-72
2021/11/18 01:54:14;;;;;;;29.50;19.83;;;;;;;3.28;100.00;97266.06;5019436;28;20029;-73
2021/11/18 01:56:40;;;;;;;28.00;18.67;;;;;;;3.31;100.00;97271.09;5041866;28;20037;-73
2021/11/18 01:59:30;;;;;;;30.60;19.47;;;;;;;3.29;100.00;97266.00;5010356;28;20051;-73
2021/11/18 02:02:18;;;;;;;28.83;17.90;;;;;;;3.28;100.00;97271.25;5025998;28;20044;-72
2021/11/18 02:05:28;;;;;;;32.67;19.53;;;;;;;3.27;100.00;97278.22;4982576;28;20027;-73
2021/11/18 02:07:57;;;;;;;30.23;18.20;;;;;;;3.30;100.00;97278.06;4975673;28;20364;-73
2021/11/18 02:10:47;;;;;;;30.20;19.53;;;;;;;3.30;100.00;97272.03;4997199;28;20076;-72
2021/11/18 02:13:16;;;;;;;27.77;18.80;;;;;;;3.28;100.00;97269.50;4998022;28;20033;-72
2021/11/18 02:15:56;;;;;;;28.47;18.30;;;;;;;3.29;100.00;97272.97;4999960;28;20120;-72
2021/11/18 02:18:28;;;;;;;28.60;18.23;;;;;;;3.28;100.00;97274.69;5020095;28;20032;-72
2021/11/18 02:21:00;;;;;;;30.47;20.17;;;;;;;3.37;100.00;97278.53;5002010;28;20091;-72
2021/11/18 02:23:33;;;;;;;30.00;18.90;;;;;;;3.30;100.00;97285.03;5018356;28;20021;-72
2021/11/18 02:26:00;;;;;;;31.73;18.60;;;;;;;3.35;100.00;97289.94;5024542;28;20061;-72
2021/11/18 02:28:30;;;;;;;32.17;20.27;;;;;;;3.35;100.00;97292.53;5007417;28;20021;-72
2021/11/18 02:31:00;;;;;;;32.60;20.17;;;;;;;3.33;100.00;97305.66;5015289;28;20490;-72
2021/11/18 02:33:27;;;;;;;33.93;20.07;;;;;;;3.35;100.00;97302.94;5013519;28;20025;-72
2021/11/18 02:35:57;;;;;;;33.27;19.40;;;;;;;3.34;100.00;97309.06;5020471;28;20477;-72
2021/11/18 02:38:23;;;;;;;30.03;19.90;;;;;;;3.37;100.00;97309.72;5016887;28;20081;-72
2021/11/18 02:40:53;;;;;;;30.77;20.00;;;;;;;3.35;100.00;97306.38;5022337;28;20086;-72
2021/11/18 02:43:19;;;;;;;30.87;20.53;;;;;;;3.39;100.00;97312.25;5006158;28;20045;-72
2021/11/18 02:45:48;;;;;;;29.00;20.23;;;;;;;3.39;100.00;97317.47;5023410;28;20060;-71
2021/11/18 02:48:18;;;;;;;34.67;22.80;;;;;;;3.37;100.00;97319.31;4999825;28;20094;-71
2021/11/18 02:50:49;;;;;;;36.63;21.47;;;;;;;3.35;100.00;97311.56;5020292;28;20125;-72
2021/11/18 02:53:17;;;;;;;30.17;20.83;;;;;;;3.41;100.00;97311.22;5014650;28;20111;-72
2021/11/18 02:55:46;;;;;;;31.87;20.07;;;;;;;3.39;100.00;97315.69;5022260;28;20039;-72
2021/11/18 02:58:13;;;;;;;30.93;19.50;;;;;;;3.39;100.00;97313.09;5022677;28;20048;-71
2021/11/18 03:01:03;;;;;;;31.20;20.37;;;;;;;3.41;100.00;97313.81;5016593;28;20029;-71
2021/11/18 03:03:29;;;;;;;30.87;20.00;;;;;;;3.40;100.00;97319.13;5018869;28;20585;-71
2021/11/18 03:05:57;;;;;;;33.33;21.90;;;;;;;3.39;100.00;97325.25;5022651;28;20074;-72
2021/11/18 03:08:24;;;;;;;31.80;21.47;;;;;;;3.45;100.00;97322.28;5029735;28;20056;-72
2021/11/18 03:10:53;;;;;;;28.70;19.77;;;;;;;3.42;100.00;97325.94;5000841;28;20028;-72
2021/11/18 03:13:20;;;;;;;37.67;21.83;;;;;;;3.42;100.00;97320.72;5010549;28;20541;-73
2021/11/18 03:15:47;;;;;;;37.53;21.50;;;;;;;3.42;100.00;97317.25;5008478;28;20032;-73
2021/11/18 03:18:14;;;;;;;34.23;20.43;;;;;;;3.41;100.00;97316.44;5012923;28;20037;-73
2021/11/18 03:20:43;;;;;;;30.80;20.93;;;;;;;3.44;100.00;97312.81;5019086;28;20036;-73
2021/11/18 03:23:10;;;;;;;38.10;21.77;;;;;;;3.40;100.00;97319.13;5030588;28;20123;-73
2021/11/18 03:25:38;;;;;;;39.37;20.20;;;;;;;3.37;100.00;97317.53;5013817;28;20037;-73
2021/11/18 03:28:14;;;;;;;33.53;20.90;;;;;;;3.45;100.00;97317.91;5000325;28;20032;-72
2021/11/18 03:30:44;;;;;;;34.23;21.20;;;;;;;3.40;100.00;97314.75;5016891;28;20087;-72
2021/11/18 03:33:19;;;;;;;32.43;19.90;;;;;;;3.42;100.00;97317.25;5023719;28;20029;-72
2021/11/18 03:35:46;;;;;;;43.40;21.63;;;;;;;3.38;100.00;97313.16;5003671;28;20036;-71
2021/11/18 03:38:12;;;;;;;33.60;20.27;;;;;;;3.36;100.00;97318.47;5022469;28;20135;-71
2021/11/18 03:40:39;;;;;;;33.67;20.87;;;;;;;3.37;100.00;97317.53;5004991;28;20021;-72
2021/11/18 03:43:09;;;;;;;33.80;20.83;;;;;;;3.41;100.00;97319.03;5018773;28;20033;-72
2021/11/18 03:45:37;;;;;;;33.73;19.83;;;;;;;3.43;100.00;97317.19;5008672;28;20041;-71
2021/11/18 03:48:04;;;;;;;41.00;22.33;;;;;;;3.38;100.00;97314.00;5018560;28;20120;-71
2021/11/18 03:50:35;;;;;;;36.80;20.90;;;;;;;3.41;100.00;97313.81;5023358;28;20045;-71
2021/11/18 03:53:01;;;;;;;37.03;22.07;;;;;;;3.39;100.00;97313.09;5021875;28;20103;-71
2021/11/18 03:55:27;;;;;;;34.33;21.60;;;;;;;3.44;100.00;97318.03;5002445;28;20079;-73
2021/11/18 03:57:53;;;;;;;35.57;20.77;;;;;;;3.38;100.00;97316.59;5017872;28;20102;-73
2021/11/18 04:00:26;;;;;;;36.63;22.43;;;;;;;3.41;100.00;97316.44;5014629;28;20025;-73
2021/11/18 04:02:54;;;;;;;42.93;22.87;;;;;;;3.42;100.00;97317.25;5032740;28;20032;-73
2021/11/18 04:05:29;;;;;;;36.60;21.70;;;;;;;3.45;100.00;97327.50;5011120;28;20025;-72
2021/11/18 04:07:55;;;;;;;37.73;21.93;;;;;;;3.50;100.00;97331.50;5000904;28;20886;-73
2021/11/18 04:10:23;;;;;;;36.43;21.60;;;;;;;3.42;100.00;97341.53;5021317;28;20017;-73
2021/11/18 04:12:50;;;;;;;34.53;20.20;;;;;;;3.47;100.00;97342.09;5021334;28;20035;-73
2021/11/18 04:15:18;;;;;;;33.43;20.53;;;;;;;3.45;100.00;97350.88;5017686;28;20064;-73
2021/11/18 04:17:47;;;;;;;35.73;21.00;;;;;;;3.37;100.00;97346.13;5006939;28;20037;-73
2021/11/18 04:20:14;;;;;;;39.23;22.47;;;;;;;3.40;100.00;97353.75;5015462;28;20368;-73
2021/11/18 04:22:43;;;;;;;34.17;21.87;;;;;;;3.37;100.00;97346.13;5025083;28;20044;-73
2021/11/18 04:25:11;;;;;;;36.67;21.53;;;;;;;3.39;100.00;97346.91;4998875;28;20033;-72
2021/11/18 04:27:40;;;;;;;37.17;20.63;;;;;;;3.39;100.00;97352.09;5003542;28;20036;-72
2021/11/18 04:30:07;;;;;;;36.53;22.57;;;;;;;3.38;100.00;97352.16;5019513;28;20478;-72
2021/11/18 04:32:34;;;;;;;45.63;24.17;;;;;;;3.40;100.00;97356.38;5008156;28;20142;-73
2021/11/18 04:35:00;;;;;;;46.87;21.77;;;;;;;3.39;100.00;97354.69;5019462;28;20127;-72
2021/11/18 04:37:26;;;;;;;40.27;22.17;;;;;;;3.40;100.00;97356.38;5024684;28;20116;-72
2021/11/18 04:39:52;;;;;;;43.70;22.50;;;;;;;3.45;100.00;97354.31;5022520;28;20025;-72
2021/11/18 04:42:19;;;;;;;38.07;21.63;;;;;;;3.44;100.00;97349.22;5035435;28;20917;-72
2021/11/18 04:44:56;;;;;;;39.97;22.23;;;;;;;3.44;100.00;97354.44;5037684;28;20037;-72
2021/11/18 04:47:22;;;;;;;39.17;22.77;;;;;;;3.43;100.00;97348.41;5018817;28;20044;-71
2021/11/18 04:49:49;;;;;;;47.23;23.20;;;;;;;3.44;100.00;97355.25;5015397;28;20043;-72
2021/11/18 04:52:17;;;;;;;37.50;22.93;;;;;;;3.48;100.00;97363.72;5014580;28;20041;-72
2021/11/18 04:54:45;;;;;;;44.37;23.33;;;;;;;3.40;100.00;97358.13;5002733;28;20071;-72
2021/11/18 04:57:12;;;;;;;46.53;23.83;;;;;;;3.44;100.00;97357.84;5024244;28;20031;-72
2021/11/18 04:59:42;;;;;;;41.07;22.30;;;;;;;3.43;100.00;97365.75;5019931;28;20029;-73
2021/11/18 05:02:08;;;;;;;40.87;22.77;;;;;;;3.42;100.00;97364.06;5044585;28;20511;-73
2021/11/18 05:04:35;;;;;;;49.57;23.43;;;;;;;3.41;100.00;97358.03;5004940;28;20033;-71
2021/11/18 05:07:01;;;;;;;45.87;23.40;;;;;;;3.42;100.00;97370.13;5021078;28;20370;-72
2021/11/18 05:09:27;;;;;;;42.20;22.57;;;;;;;3.43;100.00;97365.75;5020972;28;20028;-71
2021/11/18 05:11:53;;;;;;;50.03;22.07;;;;;;;3.43;100.00;97371.78;5005734;28;20458;-72
2021/11/18 05:14:20;;;;;;;38.23;21.33;;;;;;;3.45;100.00;97382.94;5012730;28;20115;-72
2021/11/18 05:16:48;;;;;;;47.50;24.20;;;;;;;3.42;100.00;97375.34;5006775;28;20025;-71
2021/11/18 05:19:14;;;;;;;39.93;23.10;;;;;;;3.43;100.00;97365.75;5023468;28;20017;-71
2021/11/18 05:21:41;;;;;;;35.20;21.57;;;;;;;3.43;100.00;97378.75;5024484;28;20398;-72
2021/11/18 05:24:09;;;;;;;36.23;18.00;;;;;;;3.52;100.00;97381.69;5019686;28;20017;-72
2021/11/18 05:26:37;;;;;;;38.20;20.67;;;;;;;3.48;100.00;97389.72;5008757;28;20037;-72
2021/11/18 05:29:04;;;;;;;41.00;21.13;;;;;;;3.45;100.00;97390.72;5015515;28;20033;-72
2021/11/18 05:31:30;;;;;;;43.37;22.13;;;;;;;3.44;100.00;97391.66;5015192;28;20562;-72
2021/11/18 05:34:06;;;;;;;40.20;21.23;;;;;;;3.45;100.00;97398.53;5029177;28;20059;-72
2021/11/18 05:36:36;;;;;;;58.17;22.50;;;;;;;3.43;100.00;97403.00;5017637;28;20037;-72
2021/11/18 05:39:03;;;;;;;48.23;22.20;;;;;;;3.46;100.00;97395.03;5023128;28;20047;-73
2021/11/18 05:41:33;;;;;;;41.60;22.33;;;;;;;3.50;100.00;97398.28;5017073;28;20038;-73
2021/11/18 05:44:02;;;;;;;39.83;21.30;;;;;;;3.49;100.00;97389.66;5028347;28;20032;-74
2021/11/18 05:46:32;;;;;;;42.33;21.20;;;;;;;3.56;100.00;97389.31;5015242;28;20029;-74
2021/11/18 05:49:01;;;;;;;37.13;20.77;;;;;;;3.53;100.00;97393.75;5006889;28;20723;-73
2021/11/18 05:51:28;;;;;;;34.93;19.80;;;;;;;3.58;100.00;97392.66;5009531;28;20026;-74
2021/11/18 05:53:54;;;;;;;34.13;18.77;;;;;;;3.57;100.00;97394.41;5031787;28;20017;-73
2021/11/18 05:56:22;;;;;;;35.50;19.53;;;;;;;3.52;100.00;97397.28;5012588;28;20378;-74
2021/11/18 05:58:51;;;;;;;38.93;19.93;;;;;;;3.52;100.00;97394.69;5002631;28;20029;-74
2021/11/18 06:01:22;;;;;;;34.00;17.80;;;;;;;3.52;100.00;97386.03;5022182;28;20029;-72
2021/11/18 06:03:49;;;;;;;36.13;18.10;;;;;;;3.48;100.00;97393.16;5015620;28;20043;-73
2021/11/18 06:06:27;;;;;;;32.17;16.93;;;;;;;3.50;100.00;97399.13;5017619;28;20017;-73
2021/11/18 06:08:53;;;;;;;31.27;17.67;;;;;;;3.54;100.00;97399.78;5012179;28;20032;-73
2021/11/18 06:11:21;;;;;;;34.10;17.30;;;;;;;3.56;100.00;97397.13;5012641;28;20025;-73
2021/11/18 06:13:50;;;;;;;31.80;17.93;;;;;;;3.61;100.00;97405.47;5014764;28;20037;-73
2021/11/18 06:16:18;;;;;;;31.07;17.57;;;;;;;3.62;100.00;97410.59;5012142;28;20036;-73
2021/11/18 06:18:44;;;;;;;31.27;17.73;;;;;;;3.66;100.00;97403.47;5013475;28;20406;-73
2021/11/18 06:21:11;;;;;;;33.97;18.50;;;;;;;3.65;100.00;97406.97;5012902;28;20033;-73
2021/11/18 06:23:37;;;;;;;39.20;19.37;;;;;;;3.64;100.00;97400.09;5017591;28;20506;-73
2021/11/18 06:26:03;;;;;;;38.87;19.13;;;;;;;3.66;100.00;97408.66;5015695;28;20036;-73
2021/11/18 06:28:29;;;;;;;35.83;17.93;;;;;;;3.69;100.00;97405.88;5006987;28;20579;-74
2021/11/18 06:31:01;;;;;;;32.07;19.13;;;;;;;3.65;100.00;97417.38;5022885;28;20056;-73
2021/11/18 06:33:27;;;;;;;42.33;20.67;;;;;;;3.64;100.00;97419.16;5004911;28;20648;-74
2021/11/18 06:35:54;;;;;;;38.07;18.47;;;;;;;3.66;100.00;97425.13;4999763;28;20533;-73
2021/11/18 06:38:20;;;;;;;32.80;17.23;;;;;;;3.64;100.00;97432.16;5018664;28;20026;-74
2021/11/18 06:40:50;;;;;;;34.27;18.10;;;;;;;3.72;100.00;97442.97;5005615;28;20040;-74
2021/11/18 06:43:18;;;;;;;36.17;18.47;;;;;;;3.69;100.00;97437.09;5023333;28;20035;-74
2021/11/18 06:45:50;;;;;;;28.63;14.10;;;;;;;3.69;100.00;97429.28;5026629;28;20044;-73
2021/11/18 06:48:23;;;;;;;31.73;17.33;;;;;;;3.70;100.00;97434.41;5014950;28;20034;-72
2021/11/18 06:51:07;;;;;;;36.40;17.53;;;;;;;3.68;100.00;97451.84;5005673;28;20021;-73
2021/11/18 06:53:36;;;;;;;31.27;16.77;;;;;;;3.72;100.00;97452.53;5020862;28;20057;-74
2021/11/18 06:56:03;;;;;;;35.73;16.77;;;;;;;3.69;100.00;97452.69;5013128;28;20017;-73
2021/11/18 06:58:30;;;;;;;36.43;17.17;;;;;;;3.75;100.00;97449.75;5027160;28;20041;-73
2021/11/18 07:00:56;;;;;;;40.00;17.37;;;;;;;3.75;100.00;97453.19;5027286;28;20023;-73
2021/11/18 07:03:23;;;;;;;44.30;18.27;;;;;;;3.75;100.00;97454.94;5024458;28;20036;-73
2021/11/18 07:05:49;;;;;;;44.97;18.27;;;;;;;3.77;100.00;97464.34;5037366;28;20058;-72
2021/11/18 07:08:16;;;;;;;58.93;18.43;;;;;;;3.74;100.00;97461.91;5028151;28;20078;-73
2021/11/18 07:10:43;;;;;;;57.63;18.13;;;;;;;3.78;100.00;97466.03;5025660;28;20031;-72
2021/11/18 07:13:29;;;;;;;58.33;19.03;;;;;;;3.80;100.00;97465.94;5023299;28;20431;-73
2021/11/18 07:15:55;;;;;;;52.90;20.03;;;;;;;3.80;100.00;97476.34;5022759;28;20080;-72
2021/11/18 07:18:23;;;;;;;90.00;24.87;;;;;;;3.81;100.00;97480.63;4993870;28;20033;-72
2021/11/18 07:20:51;;;;;;;106.80;31.93;;;;;;;3.81;100.00;97483.22;5020419;28;20040;-73
2021/11/18 07:23:17;;;;;;;57.40;21.53;;;;;;;3.83;100.00;97478.78;5023721;28;20056;-73
2021/11/18 07:25:50;;;;;;;44.07;18.33;;;;;;;3.86;100.00;97478.63;5009025;28;20017;-73
2021/11/18 07:28:19;;;;;;;89.83;20.10;;;;;;;3.89;100.00;97486.25;5023222;28;20021;-73
2021/11/18 07:30:47;;;;;;;74.97;20.07;;;;;;;3.85;100.00;97489.94;5012943;28;20055;-73
2021/11/18 07:33:14;;;;;;;69.83;18.90;;;;;;;3.87;100.00;97489.84;5023202;28;20087;-72
2021/11/18 07:35:41;;;;;;;117.27;20.17;;;;;;;3.88;100.00;97487.16;5020377;28;20083;-73
2021/11/18 07:38:07;;;;;;;73.00;19.30;;;;;;;3.86;100.00;97485.59;5041621;28;20029;-72
2021/11/18 07:40:39;;;;;;;81.83;20.37;;;;;;;3.90;100.00;97484.50;5028551;28;20059;-72
2021/11/18 07:43:36;;;;;;;96.30;19.00;;;;;;;3.89;100.00;97488.00;5011592;28;20033;-72
2021/11/18 07:46:37;;;;;;;122.80;20.37;;;;;;;3.87;100.00;97495.91;4959094;28;20051;-72
2021/11/18 07:49:10;;;;;;;78.85;18.90;;;;;;;3.91;100.00;97481.78;5006021;28;20041;-72
2021/11/18 07:51:38;;;;;;;67.60;17.93;;;;;;;3.89;100.00;97482.78;5001095;28;20033;-72
2021/11/18 07:54:12;;;;;;;61.80;17.43;;;;;;;3.93;100.00;97486.91;5025411;28;20056;-73
2021/11/18 07:56:38;;;;;;;89.47;19.80;;;;;;;3.98;100.00;97498.72;5023526;28;20037;-73
2021/11/18 07:59:04;;;;;;;115.83;21.67;;;;;;;4.01;100.00;97495.94;5027290;28;20025;-72
2021/11/18 08:01:33;;;;;;;48.77;17.50;;;;;;;4.09;100.00;97507.69;5022776;28;20382;-73
2021/11/18 08:03:59;;;;;;;84.70;20.13;;;;;;;3.98;100.00;97514.34;5021243;28;20091;-72
2021/11/18 08:06:39;;;;;;;82.30;20.80;;;;;;;4.06;100.00;97513.06;5043864;28;20251;-72
2021/11/18 08:09:10;;;;;;;76.67;22.27;;;;;;;4.05;100.00;97520.03;5033393;28;20037;-72
2021/11/18 08:11:56;;;;;;;88.23;19.03;;;;;;;4.04;100.00;97514.94;5020746;28;20092;-73
2021/11/18 08:14:24;;;;;;;105.07;22.10;;;;;;;4.03;100.00;97514.09;5009191;28;20397;-73
2021/11/18 08:16:54;;;;;;;77.67;18.60;;;;;;;4.01;100.00;97514.16;5022440;28;20025;-73
2021/11/18 08:19:19;;;;;;;56.77;17.90;;;;;;;4.08;100.00;97514.66;5025734;28;20115;-73
2021/11/18 08:21:49;;;;;;;84.77;18.00;;;;;;;4.06;100.00;97513.06;5018647;28;20032;-73
2021/11/18 08:24:21;;;;;;;82.67;20.50;;;;;;;4.08;100.00;97521.63;5028788;28;20052;-72
2021/11/18 08:26:47;;;;;;;53.93;17.80;;;;;;;4.10;100.00;97517.19;5026052;28;20075;-72
2021/11/18 08:29:18;;;;;;;93.57;22.30;;;;;;;4.20;100.00;97526.16;5026968;28;20029;-73
2021/11/18 08:31:46;;;;;;;77.70;19.47;;;;;;;4.20;100.00;97523.53;5025778;28;20358;-73
2021/11/18 08:34:30;;;;;;;62.23;18.43;;;;;;;4.24;100.00;97535.44;5038540;28;20059;-73
2021/11/18 08:37:06;;;;;;;57.93;19.73;;;;;;;4.22;100.00;97532.09;5026857;28;20029;-73
2021/11/18 08:39:35;;;;;;;64.53;18.13;;;;;;;4.23;100.00;97529.41;5028448;28;20029;-73
2021/11/18 08:42:05;;;;;;;51.97;18.30;;;;;;;4.26;100.00;97533.63;5025673;28;20025;-73
2021/11/18 08:44:33;;;;;;;70.37;20.03;;;;;;;4.38;100.00;97530.28;5027186;28;20068;-73
2021/11/18 08:46:59;;;;;;;61.60;18.50;;;;;;;4.42;100.00;97531.78;5025514;28;20033;-73
2021/11/18 08:49:28;;;;;;;53.93;20.97;;;;;;;4.45;100.00;97526.38;5022171;28;20401;-73
2021/11/18 08:51:56;;;;;;;47.30;18.00;;;;;;;4.40;100.00;97528.44;5017041;28;20024;-74
2021/11/18 08:54:27;;;;;;;70.77;18.93;;;;;;;4.54;100.00;97526.78;5004127;28;20438;-74
2021/11/18 08:56:55;;;;;;;44.97;17.47;;;;;;;4.60;100.00;97531.66;5038660;28;20486;-74
2021/11/18 08:59:24;;;;;;;45.73;17.37;;;;;;;4.66;100.00;97528.66;5022704;28;20036;-74
2021/11/18 09:01:58;;;;;;;38.30;15.80;;;;;;;4.64;100.00;97530.53;5007448;28;20052;-74
2021/11/18 09:04:28;;;;;;;46.20;17.85;;;;;;;4.80;100.00;97530.47;5020430;28;20051;-73
2021/11/18 09:06:54;;;;;;;36.33;15.00;;;;;;;4.85;100.00;97534.44;5023441;28;20028;-74
2021/11/18 09:09:24;;;;;;;37.47;16.40;;;;;;;4.73;100.00;97532.59;5025496;28;20029;-74
2021/11/18 09:11:53;;;;;;;28.40;13.73;;;;;;;4.75;100.00;97530.72;5015902;28;20057;-74
2021/11/18 09:14:24;;;;;;;33.13;14.68;;;;;;;4.79;100.00;97534.81;5027420;28;20062;-74
2021/11/18 09:16:51;;;;;;;34.37;15.00;;;;;;;4.82;100.00;97539.00;5015327;28;20102;-74
2021/11/18 09:19:28;;;;;;;35.57;14.80;;;;;;;4.88;100.00;97536.03;5022928;28;20035;-74
2021/11/18 09:21:55;;;;;;;33.53;15.43;;;;;;;4.92;100.00;97537.53;5014324;28;20596;-74
2021/11/18 09:24:44;;;;;;;29.93;14.20;;;;;;;5.10;100.00;97538.22;5032236;28;20028;-74
2021/11/18 09:27:18;;;;;;;27.33;13.80;;;;;;;5.07;100.00;97541.00;5038958;28;20486;-73
2021/11/18 09:29:46;;;;;;;37.83;20.92;;;;;;;5.10;100.00;97541.66;5017178;28;20031;-73
2021/11/18 09:32:20;;;;;;;27.47;13.67;;;;;;;5.10;100.00;97541.66;5019665;28;20021;-73
2021/11/18 09:35:02;;;;;;;24.97;14.13;;;;;;;5.14;100.00;97542.31;5008847;28;20033;-73
2021/11/18 09:37:29;;;;;;;23.23;12.68;;;;;;;5.21;100.00;97543.59;5024501;28;20036;-73
2021/11/18 09:39:55;;;;;;;25.50;13.43;;;;;;;5.29;100.00;97546.56;5026736;28;20025;-73
2021/11/18 09:42:29;;;;;;;24.03;13.80;;;;;;;5.24;100.00;97545.19;5015590;28;20107;-73
2021/11/18 09:44:56;;;;;;;21.33;11.80;;;;;;;5.22;100.00;97545.25;5037098;28;20035;-73
2021/11/18 09:47:41;;;;;;;21.27;11.47;;;;;;;5.25;100.00;97552.06;5009707;28;20033;-73
2021/11/18 09:50:31;;;;;;;22.73;12.50;;;;;;;5.33;100.00;97539.38;5006211;28;20033;-73
2021/11/18 09:53:42;;;;;;;21.77;11.47;;;;;;;5.41;100.00;97540.59;5022463;28;20033;-73
2021/11/18 09:56:32;;;;;;;19.23;11.23;;;;;;;5.41;100.00;97544.97;5019374;28;20033;-74
2021/11/18 09:59:28;;;;;;;19.43;10.53;;;;;;;5.40;100.00;97546.75;5020176;28;20037;-74
2021/11/18 10:02:31;;;;;;;21.57;12.00;;;;;;;5.46;100.00;97548.13;5038679;28;20026;-73
2021/11/18 10:05:23;;;;;;;16.90;10.50;;;;;;;5.60;100.00;97542.91;5015302;28;20041;-74
2021/11/18 10:07:56;;;;;;;17.97;10.00;;;;;;;5.66;100.00;97555.53;5009292;28;20560;-73
2021/11/18 10:11:05;;;;;;;18.90;10.77;;;;;;;5.66;100.00;97539.88;5015201;28;20057;-73
2021/11/18 10:14:08;;;;;;;20.13;11.80;;;;;;;5.76;100.00;97540.16;5006739;28;20098;-73
2021/11/18 10:16:48;;;;;;;17.57;9.70;;;;;;;5.58;100.00;97546.53;5024243;28;20115;-73
2021/11/18 10:19:23;;;;;;;17.10;11.00;;;;;;;5.67;100.00;97546.81;5009743;28;20735;-73
2021/11/18 10:21:48;;;;;;;14.37;9.03;;;;;;;5.63;100.00;97547.06;5035670;28;20033;-73
2021/11/18 10:24:23;;;;;;;14.23;9.00;;;;;;;5.53;100.00;97546.81;5034003;28;20036;-72
2021/11/18 10:26:59;;;;;;;14.47;8.97;;;;;;;5.53;100.00;97553.81;5005333;28;20083;-73
2021/11/18 10:29:32;;;;;;;14.17;8.97;;;;;;;5.57;100.00;97557.91;5038412;28;20051;-73
2021/11/18 10:32:04;;;;;;;19.17;10.88;;;;;;;5.56;100.00;97558.84;5027164;28;20043;-73
2021/11/18 10:34:51;;;;;;;17.13;9.97;;;;;;;5.50;100.00;97562.69;5018256;28;20622;-73
2021/11/18 10:37:29;;;;;;;15.53;9.33;;;;;;;5.49;100.00;97558.38;5011017;28;20479;-73
2021/11/18 10:40:00;;;;;;;16.93;10.10;;;;;;;5.50;100.00;97557.47;5028215;28;20647;-73
2021/11/18 10:42:47;;;;;;;17.73;9.43;;;;;;;5.48;100.00;97553.25;5011465;28;20029;-73
2021/11/18 10:45:39;;;;;;;14.13;8.70;;;;;;;5.50;100.00;97554.00;5041853;28;20367;-73
2021/11/18 10:48:18;;;;;;;12.60;7.33;;;;;;;5.49;100.00;97549.72;5022872;28;20048;-73
2021/11/18 10:50:59;;;;;;;15.97;9.77;;;;;;;5.55;100.00;97544.94;5034148;28;20066;-73
2021/11/18 10:53:30;;;;;;;15.20;8.83;;;;;;;5.67;100.00;97551.19;5017257;28;20057;-73
2021/11/18 10:55:59;;;;;;;12.37;7.53;;;;;;;5.64;100.00;97541.78;5029571;28;20033;-73
2021/11/18 10:58:24;;;;;;;11.87;6.57;;;;;;;5.74;100.00;97542.03;5025591;28;20029;-73
2021/11/18 11:01:15;;;;;;;9.23;5.20;;;;;;;5.74;100.00;97534.19;5035272;28;20025;-73
2021/11/18 11:03:44;;;;;;;10.40;5.40;;;;;;;5.74;100.00;97542.03;5026157;28;20080;-73
2021/11/18 11:06:17;;;;;;;12.07;6.20;;;;;;;5.73;100.00;97531.66;5038269;28;20021;-73
2021/11/18 11:08:48;;;;;;;11.77;7.23;;;;;;;5.76;100.00;97534.91;4998934;28;20071;-73
2021/11/18 11:11:23;;;;;;;12.23;7.83;;;;;;;5.88;100.00;97539.38;5041497;28;20025;-73
2021/11/18 11:13:52;;;;;;;9.20;5.23;;;;;;;5.83;100.00;97530.16;5010684;28;20061;-73
2021/11/18 11:16:37;;;;;;;11.07;6.40;;;;;;;5.91;100.00;97526.13;5041056;28;20382;-73
2021/11/18 11:19:13;;;;;;;11.77;6.63;;;;;;;5.86;100.00;97530.78;5033611;28;20029;-73
2021/11/18 11:21:48;;;;;;;10.27;6.63;;;;;;;5.85;100.00;97534.34;5015741;28;20030;-73
2021/11/18 11:24:16;;;;;;;12.57;7.00;;;;;;;5.76;100.00;97528.88;5035745;28;20108;-73
2021/11/18 11:27:16;;;;;;;13.10;7.07;;;;;;;5.77;100.00;97528.78;5001835;28;20399;-73
2021/11/18 11:29:51;;;;;;;11.47;6.80;;;;;;;5.84;100.00;97527.47;5019161;28;20040;-73
2021/11/18 11:32:33;;;;;;;12.47;6.47;;;;;;;5.72;100.00;97524.78;5016424;28;20068;-73
2021/11/18 11:35:04;;;;;;;12.20;7.33;;;;;;;5.66;100.00;97528.63;5009555;28;20032;-73